Terminal Aerodrome Forecast
Issued by NWS

Home | Current Version | Previous Version | Text Only | Print | Product List | Glossary On
Versions: 1 2 3 4 5 6 7 8 9 10 11 12 13 14 15 16
000
FTUS41 KCAR 280533
TAFBHB
TAF
KBHB 280533Z 2806/2906 21008KT 6SM BR SCT008
      TEMPO 2806/2810 1SM BR BKN003
     FM281200 21009KT P6SM BKN020
     FM281400 21010KT P6SM BKN035
     FM281700 21011KT P6SM -SHRA VCTS SCT025 BKN050CB
     FM290000 23007KT P6SM BKN040
     FM290300 28006KT P6SM BKN045
      AMD LTD TO CLD VIS AND WIND=

USA.gov is the U.S. government's official web portal to all federal, state and local government web resources and services.